sensor_id;sensor_type;location;lat;lon;timestamp;pressure;altitude;pressure_sealevel;temperature;humidity
64141;BME280;50436;50.618;7.932;2022-08-18T00:01:50;96230.41;;;19.57;100.00
64141;BME280;50436;50.618;7.932;2022-08-18T00:04:19;96230.66;;;19.47;100.00
64141;BME280;50436;50.618;7.932;2022-08-18T00:06:45;96235.78;;;19.48;100.00
64141;BME280;50436;50.618;7.932;2022-08-18T00:09:11;96236.88;;;19.47;100.00
64141;BME280;50436;50.618;7.932;2022-08-18T00:11:40;96242.13;;;19.44;100.00
64141;BME280;50436;50.618;7.932;2022-08-18T00:14:07;96236.84;;;19.39;100.00
64141;BME280;50436;50.618;7.932;2022-08-18T00:16:33;96242.38;;;19.34;100.00
64141;BME280;50436;50.618;7.932;2022-08-18T00:18:59;96241.91;;;19.32;100.00
64141;BME280;50436;50.618;7.932;2022-08-18T00:21:25;96232.59;;;19.24;100.00
64141;BME280;50436;50.618;7.932;2022-08-18T00:23:52;96245.47;;;19.18;100.00
64141;BME280;50436;50.618;7.932;2022-08-18T00:26:17;96234.63;;;19.18;100.00
64141;BME280;50436;50.618;7.932;2022-08-18T00:28:43;96236.84;;;19.16;100.00
64141;BME280;50436;50.618;7.932;2022-08-18T00:31:08;96242.50;;;19.06;100.00
64141;BME280;50436;50.618;7.932;2022-08-18T00:33:34;96239.59;;;19.03;100.00
64141;BME280;50436;50.618;7.932;2022-08-18T00:35:59;96240.00;;;18.74;100.00
64141;BME280;50436;50.618;7.932;2022-08-18T00:38:25;96246.34;;;18.55;100.00
64141;BME280;50436;50.618;7.932;2022-08-18T00:40:52;96249.56;;;18.44;100.00
64141;BME280;50436;50.618;7.932;2022-08-18T00:43:35;96246.91;;;18.30;100.00
64141;BME280;50436;50.618;7.932;2022-08-18T00:46:11;96250.59;;;18.20;100.00
64141;BME280;50436;50.618;7.932;2022-08-18T00:48:38;96250.31;;;18.22;100.00
64141;BME280;50436;50.618;7.932;2022-08-18T00:51:09;96249.88;;;18.28;100.00
64141;BME280;50436;50.618;7.932;2022-08-18T00:53:41;96249.38;;;18.40;100.00
64141;BME280;50436;50.618;7.932;2022-08-18T00:56:20;96254.50;;;18.42;100.00
64141;BME280;50436;50.618;7.932;2022-08-18T00:59:15;96262.75;;;18.23;100.00
64141;BME280;50436;50.618;7.932;2022-08-18T01:01:43;96262.22;;;18.21;100.00
64141;BME280;50436;50.618;7.932;2022-08-18T01:04:22;96261.31;;;18.12;100.00
64141;BME280;50436;50.618;7.932;2022-08-18T01:06:53;96263.44;;;18.01;100.00
64141;BME280;50436;50.618;7.932;2022-08-18T01:09:20;96264.84;;;17.98;100.00
64141;BME280;50436;50.618;7.932;2022-08-18T01:11:46;96256.91;;;17.88;100.00
64141;BME280;50436;50.618;7.932;2022-08-18T01:14:13;96255.69;;;17.80;100.00
64141;BME280;50436;50.618;7.932;2022-08-18T01:16:41;96266.41;;;17.72;100.00
64141;BME280;50436;50.618;7.932;2022-08-18T01:19:26;96265.88;;;17.70;100.00
64141;BME280;50436;50.618;7.932;2022-08-18T01:22:37;96280.16;;;17.75;100.00
64141;BME280;50436;50.618;7.932;2022-08-18T01:25:08;96273.28;;;17.64;100.00
64141;BME280;50436;50.618;7.932;2022-08-18T01:27:53;96275.56;;;17.57;100.00
64141;BME280;50436;50.618;7.932;2022-08-18T01:30:22;96271.25;;;17.56;100.00
64141;BME280;50436;50.618;7.932;2022-08-18T01:32:51;96271.56;;;17.54;100.00
64141;BME280;50436;50.618;7.932;2022-08-18T01:35:18;96274.34;;;17.49;100.00
64141;BME280;50436;50.618;7.932;2022-08-18T01:37:45;96272.03;;;17.43;100.00
64141;BME280;50436;50.618;7.932;2022-08-18T01:40:14;96266.84;;;17.46;100.00
64141;BME280;50436;50.618;7.932;2022-08-18T01:42:41;96268.44;;;17.47;100.00
64141;BME280;50436;50.618;7.932;2022-08-18T01:45:11;96274.28;;;17.54;100.00
64141;BME280;50436;50.618;7.932;2022-08-18T01:47:37;96274.88;;;17.51;100.00
64141;BME280;50436;50.618;7.932;2022-08-18T01:50:07;96273.47;;;17.54;100.00
64141;BME280;50436;50.618;7.932;2022-08-18T01:52:33;96269.34;;;17.57;100.00
64141;BME280;50436;50.618;7.932;2022-08-18T01:55:00;96265.66;;;17.52;100.00
64141;BME280;50436;50.618;7.932;2022-08-18T01:57:26;96269.66;;;17.55;100.00
64141;BME280;50436;50.618;7.932;2022-08-18T01:59:52;96275.28;;;17.59;100.00
64141;BME280;50436;50.618;7.932;2022-08-18T02:02:24;96276.38;;;17.58;100.00
64141;BME280;50436;50.618;7.932;2022-08-18T02:04:53;96275.16;;;17.50;100.00
64141;BME280;50436;50.618;7.932;2022-08-18T02:07:21;96275.94;;;17.50;100.00
64141;BME280;50436;50.618;7.932;2022-08-18T02:09:47;96274.94;;;17.46;100.00
64141;BME280;50436;50.618;7.932;2022-08-18T02:12:12;96275.06;;;17.55;100.00
64141;BME280;50436;50.618;7.932;2022-08-18T02:14:38;96273.53;;;17.49;100.00
64141;BME280;50436;50.618;7.932;2022-08-18T02:17:07;96264.34;;;17.50;100.00
64141;BME280;50436;50.618;7.932;2022-08-18T02:19:41;96255.00;;;17.42;100.00
64141;BME280;50436;50.618;7.932;2022-08-18T02:22:09;96262.84;;;17.44;100.00
64141;BME280;50436;50.618;7.932;2022-08-18T02:24:36;96257.00;;;17.37;100.00
64141;BME280;50436;50.618;7.932;2022-08-18T02:27:01;96253.69;;;17.40;100.00
64141;BME280;50436;50.618;7.932;2022-08-18T02:29:27;96259.91;;;17.40;100.00
64141;BME280;50436;50.618;7.932;2022-08-18T02:31:53;96256.88;;;17.28;100.00
64141;BME280;50436;50.618;7.932;2022-08-18T02:34:18;96259.16;;;17.21;100.00
64141;BME280;50436;50.618;7.932;2022-08-18T02:36:44;96262.97;;;17.20;100.00
64141;BME280;50436;50.618;7.932;2022-08-18T02:39:10;96256.91;;;17.09;100.00
64141;BME280;50436;50.618;7.932;2022-08-18T02:41:36;96259.16;;;17.02;100.00
64141;BME280;50436;50.618;7.932;2022-08-18T02:44:01;96262.47;;;16.99;100.00
64141;BME280;50436;50.618;7.932;2022-08-18T02:46:27;96269.91;;;16.88;100.00
64141;BME280;50436;50.618;7.932;2022-08-18T02:48:53;96269.41;;;16.86;100.00
64141;BME280;50436;50.618;7.932;2022-08-18T02:51:19;96266.81;;;16.81;100.00
64141;BME280;50436;50.618;7.932;2022-08-18T02:53:46;96270.22;;;16.87;100.00
64141;BME280;50436;50.618;7.932;2022-08-18T02:56:18;96271.38;;;16.99;100.00
64141;BME280;50436;50.618;7.932;2022-08-18T02:59:00;96266.03;;;17.13;100.00
64141;BME280;50436;50.618;7.932;2022-08-18T03:01:29;96264.56;;;17.21;100.00
64141;BME280;50436;50.618;7.932;2022-08-18T03:03:57;96260.16;;;17.25;100.00
64141;BME280;50436;50.618;7.932;2022-08-18T03:06:23;96259.34;;;17.24;100.00
64141;BME280;50436;50.618;7.932;2022-08-18T03:08:49;96259.72;;;17.18;100.00
64141;BME280;50436;50.618;7.932;2022-08-18T03:11:17;96259.53;;;17.14;100.00
64141;BME280;50436;50.618;7.932;2022-08-18T03:13:43;96262.72;;;17.16;100.00
64141;BME280;50436;50.618;7.932;2022-08-18T03:16:08;96268.50;;;17.10;100.00
64141;BME280;50436;50.618;7.932;2022-08-18T03:18:34;96265.06;;;17.04;100.00
64141;BME280;50436;50.618;7.932;2022-08-18T03:21:11;96269.28;;;16.96;100.00
64141;BME280;50436;50.618;7.932;2022-08-18T03:23:37;96271.59;;;16.84;100.00
64141;BME280;50436;50.618;7.932;2022-08-18T03:26:08;96269.41;;;16.86;100.00
64141;BME280;50436;50.618;7.932;2022-08-18T03:28:44;96273.50;;;16.84;100.00
64141;BME280;50436;50.618;7.932;2022-08-18T03:31:11;96273.28;;;16.80;100.00
64141;BME280;50436;50.618;7.932;2022-08-18T03:33:39;96282.28;;;16.76;100.00
64141;BME280;50436;50.618;7.932;2022-08-18T03:36:08;96282.84;;;16.73;100.00
64141;BME280;50436;50.618;7.932;2022-08-18T03:38:34;96274.28;;;16.65;100.00
64141;BME280;50436;50.618;7.932;2022-08-18T03:41:00;96280.31;;;16.57;100.00
64141;BME280;50436;50.618;7.932;2022-08-18T03:43:26;96283.44;;;16.46;100.00
64141;BME280;50436;50.618;7.932;2022-08-18T03:45:52;96281.34;;;16.42;100.00
64141;BME280;50436;50.618;7.932;2022-08-18T03:48:21;96278.91;;;16.41;100.00
64141;BME280;50436;50.618;7.932;2022-08-18T03:50:47;96280.53;;;16.42;100.00
64141;BME280;50436;50.618;7.932;2022-08-18T03:53:13;96279.34;;;16.48;100.00
64141;BME280;50436;50.618;7.932;2022-08-18T03:55:42;96274.66;;;16.59;100.00
64141;BME280;50436;50.618;7.932;2022-08-18T03:58:07;96275.59;;;16.68;100.00
64141;BME280;50436;50.618;7.932;2022-08-18T04:00:37;96275.56;;;16.92;100.00
64141;BME280;50436;50.618;7.932;2022-08-18T04:03:02;96265.06;;;17.04;100.00
64141;BME280;50436;50.618;7.932;2022-08-18T04:05:28;96263.53;;;17.17;100.00
64141;BME280;50436;50.618;7.932;2022-08-18T04:07:54;96267.34;;;17.16;100.00
64141;BME280;50436;50.618;7.932;2022-08-18T04:10:24;96265.66;;;17.20;100.00
64141;BME280;50436;50.618;7.932;2022-08-18T04:12:50;96262.00;;;17.30;100.00
64141;BME280;50436;50.618;7.932;2022-08-18T04:15:16;96262.41;;;17.37;100.00
64141;BME280;50436;50.618;7.932;2022-08-18T04:17:42;96259.91;;;17.40;100.00
64141;BME280;50436;50.618;7.932;2022-08-18T04:20:10;96261.75;;;17.26;100.00
64141;BME280;50436;50.618;7.932;2022-08-18T04:22:37;96257.06;;;17.32;100.00
64141;BME280;50436;50.618;7.932;2022-08-18T04:25:02;96265.91;;;17.37;100.00
64141;BME280;50436;50.618;7.932;2022-08-18T04:27:28;96265.06;;;17.23;100.00
64141;BME280;50436;50.618;7.932;2022-08-18T04:29:54;96258.84;;;17.22;100.00
64141;BME280;50436;50.618;7.932;2022-08-18T04:32:23;96253.41;;;17.09;100.00
64141;BME280;50436;50.618;7.932;2022-08-18T04:34:49;96257.56;;;17.20;100.00
64141;BME280;50436;50.618;7.932;2022-08-18T04:37:16;96245.25;;;17.27;100.00
64141;BME280;50436;50.618;7.932;2022-08-18T04:39:43;96251.53;;;17.23;100.00
64141;BME280;50436;50.618;7.932;2022-08-18T04:42:09;96254.97;;;17.29;100.00
64141;BME280;50436;50.618;7.932;2022-08-18T04:44:35;96255.84;;;17.24;100.00
64141;BME280;50436;50.618;7.932;2022-08-18T04:47:03;96261.13;;;17.15;100.00
64141;BME280;50436;50.618;7.932;2022-08-18T04:49:29;96264.81;;;17.06;100.00
64141;BME280;50436;50.618;7.932;2022-08-18T04:51:57;96261.06;;;17.02;100.00
64141;BME280;50436;50.618;7.932;2022-08-18T04:54:42;96267.94;;;17.13;100.00
64141;BME280;50436;50.618;7.932;2022-08-18T04:57:13;96268.88;;;17.22;100.00
64141;BME280;50436;50.618;7.932;2022-08-18T04:59:41;96267.84;;;17.18;100.00
64141;BME280;50436;50.618;7.932;2022-08-18T05:02:07;96267.50;;;17.06;100.00
64141;BME280;50436;50.618;7.932;2022-08-18T05:04:38;96272.53;;;17.12;100.00
64141;BME280;50436;50.618;7.932;2022-08-18T05:07:07;96267.28;;;17.21;100.00
64141;BME280;50436;50.618;7.932;2022-08-18T05:09:33;96272.00;;;17.29;100.00
64141;BME280;50436;50.618;7.932;2022-08-18T05:12:04;96268.09;;;17.35;100.00
64141;BME280;50436;50.618;7.932;2022-08-18T05:14:30;96281.03;;;17.38;100.00
64141;BME280;50436;50.618;7.932;2022-08-18T05:17:00;96272.03;;;17.43;100.00
64141;BME280;50436;50.618;7.932;2022-08-18T05:19:27;96277.97;;;17.45;100.00
64141;BME280;50436;50.618;7.932;2022-08-18T05:21:54;96279.25;;;17.47;100.00
64141;BME280;50436;50.618;7.932;2022-08-18T05:24:20;96287.69;;;17.46;100.00
64141;BME280;50436;50.618;7.932;2022-08-18T05:26:49;96294.50;;;17.43;100.00
64141;BME280;50436;50.618;7.932;2022-08-18T05:29:15;96296.16;;;17.39;100.00
64141;BME280;50436;50.618;7.932;2022-08-18T05:31:43;96289.16;;;17.38;100.00
64141;BME280;50436;50.618;7.932;2022-08-18T05:34:09;96287.56;;;17.37;100.00
64141;BME280;50436;50.618;7.932;2022-08-18T05:36:55;96295.38;;;17.39;100.00
64141;BME280;50436;50.618;7.932;2022-08-18T05:41:54;96295.66;;;17.37;100.00
64141;BME280;50436;50.618;7.932;2022-08-18T05:44:30;96294.88;;;17.37;100.00
64141;BME280;50436;50.618;7.932;2022-08-18T05:47:06;96287.44;;;17.42;100.00
64141;BME280;50436;50.618;7.932;2022-08-18T05:49:35;96290.47;;;17.41;100.00
64141;BME280;50436;50.618;7.932;2022-08-18T05:52:08;96290.16;;;17.42;100.00
64141;BME280;50436;50.618;7.932;2022-08-18T05:54:51;96294.75;;;17.42;100.00
64141;BME280;50436;50.618;7.932;2022-08-18T05:57:41;96306.69;;;17.41;100.00
64141;BME280;50436;50.618;7.932;2022-08-18T06:00:10;96308.25;;;17.28;100.00
64141;BME280;50436;50.618;7.932;2022-08-18T06:02:46;96301.66;;;17.34;100.00
64141;BME280;50436;50.618;7.932;2022-08-18T06:05:27;96299.66;;;17.40;100.00
64141;BME280;50436;50.618;7.932;2022-08-18T06:07:56;96309.19;;;17.37;100.00
64141;BME280;50436;50.618;7.932;2022-08-18T06:10:23;96308.97;;;17.34;100.00
64141;BME280;50436;50.618;7.932;2022-08-18T06:12:57;96307.84;;;17.35;100.00
64141;BME280;50436;50.618;7.932;2022-08-18T06:15:26;96314.06;;;17.35;100.00
64141;BME280;50436;50.618;7.932;2022-08-18T06:26:40;96315.28;;;17.29;100.00
64141;BME280;50436;50.618;7.932;2022-08-18T06:29:26;96321.47;;;17.30;100.00
64141;BME280;50436;50.618;7.932;2022-08-18T06:37:45;96314.94;;;17.49;100.00
64141;BME280;50436;50.618;7.932;2022-08-18T06:40:32;96316.94;;;17.58;100.00
64141;BME280;50436;50.618;7.932;2022-08-18T06:42:57;96309.19;;;17.70;100.00
64141;BME280;50436;50.618;7.932;2022-08-18T06:45:30;96314.97;;;17.82;100.00
64141;BME280;50436;50.618;7.932;2022-08-18T06:50:51;96311.56;;;18.18;100.00
64141;BME280;50436;50.618;7.932;2022-08-18T06:53:17;96308.88;;;18.31;100.00
64141;BME280;50436;50.618;7.932;2022-08-18T06:55:47;96307.16;;;18.49;100.00
64141;BME280;50436;50.618;7.932;2022-08-18T07:03:22;96295.53;;;18.99;100.00
64141;BME280;50436;50.618;7.932;2022-08-18T07:05:58;96296.31;;;19.13;100.00
64141;BME280;50436;50.618;7.932;2022-08-18T07:11:28;96299.84;;;19.36;100.00
64141;BME280;50436;50.618;7.932;2022-08-18T07:13:58;96304.28;;;19.32;100.00
64141;BME280;50436;50.618;7.932;2022-08-18T07:16:36;96300.41;;;19.46;100.00
64141;BME280;50436;50.618;7.932;2022-08-18T07:19:12;96293.44;;;19.54;100.00
64141;BME280;50436;50.618;7.932;2022-08-18T07:21:39;96300.47;;;19.55;100.00
64141;BME280;50436;50.618;7.932;2022-08-18T07:24:10;96302.97;;;19.52;100.00
64141;BME280;50436;50.618;7.932;2022-08-18T07:26:58;96309.34;;;19.47;100.00
64141;BME280;50436;50.618;7.932;2022-08-18T07:29:25;96315.94;;;19.55;100.00
64141;BME280;50436;50.618;7.932;2022-08-18T07:31:53;96318.91;;;19.67;100.00
64141;BME280;50436;50.618;7.932;2022-08-18T07:34:35;96318.25;;;19.61;100.00
64141;BME280;50436;50.618;7.932;2022-08-18T07:39:52;96328.53;;;19.73;100.00
64141;BME280;50436;50.618;7.932;2022-08-18T07:42:36;96337.47;;;19.73;100.00
64141;BME280;50436;50.618;7.932;2022-08-18T07:47:52;96346.75;;;19.72;100.00
64141;BME280;50436;50.618;7.932;2022-08-18T07:50:21;96362.34;;;19.89;100.00
64141;BME280;50436;50.618;7.932;2022-08-18T07:55:30;96367.16;;;19.92;100.00
64141;BME280;50436;50.618;7.932;2022-08-18T08:00:59;96371.47;;;19.93;100.00
64141;BME280;50436;50.618;7.932;2022-08-18T08:06:38;96373.56;;;19.96;100.00
64141;BME280;50436;50.618;7.932;2022-08-18T08:12:12;96376.31;;;20.05;100.00
64141;BME280;50436;50.618;7.932;2022-08-18T08:14:44;96371.38;;;20.07;100.00
64141;BME280;50436;50.618;7.932;2022-08-18T08:25:23;96380.28;;;19.76;100.00
64141;BME280;50436;50.618;7.932;2022-08-18T08:28:02;96373.41;;;19.70;100.00
64141;BME280;50436;50.618;7.932;2022-08-18T08:30:36;96376.13;;;19.70;100.00
64141;BME280;50436;50.618;7.932;2022-08-18T08:33:13;96371.59;;;19.66;100.00
64141;BME280;50436;50.618;7.932;2022-08-18T08:35:49;96372.22;;;19.63;100.00
64141;BME280;50436;50.618;7.932;2022-08-18T08:38:25;96373.13;;;19.58;100.00
64141;BME280;50436;50.618;7.932;2022-08-18T08:41:00;96373.44;;;19.57;100.00
64141;BME280;50436;50.618;7.932;2022-08-18T08:43:34;96382.59;;;19.47;100.00
64141;BME280;50436;50.618;7.932;2022-08-18T08:46:11;96374.41;;;19.38;100.00
64141;BME280;50436;50.618;7.932;2022-08-18T08:49:08;96386.47;;;19.32;100.00
64141;BME280;50436;50.618;7.932;2022-08-18T08:51:46;96384.47;;;19.24;100.00
64141;BME280;50436;50.618;7.932;2022-08-18T08:54:19;96384.59;;;19.19;100.00
64141;BME280;50436;50.618;7.932;2022-08-18T08:56:49;96389.53;;;19.17;100.00
64141;BME280;50436;50.618;7.932;2022-08-18T08:59:18;96380.69;;;19.11;100.00
64141;BME280;50436;50.618;7.932;2022-08-18T09:04:32;96385.06;;;19.21;100.00
64141;BME280;50436;50.618;7.932;2022-08-18T09:23:29;96365.78;;;19.59;100.00
64141;BME280;50436;50.618;7.932;2022-08-18T09:25:58;96358.22;;;19.69;100.00
64141;BME280;50436;50.618;7.932;2022-08-18T09:28:58;96362.34;;;19.67;100.00
64141;BME280;50436;50.618;7.932;2022-08-18T09:31:26;96358.81;;;19.66;100.00
64141;BME280;50436;50.618;7.932;2022-08-18T09:34:24;96360.78;;;19.74;100.00
64141;BME280;50436;50.618;7.932;2022-08-18T09:37:11;96361.47;;;19.80;100.00
64141;BME280;50436;50.618;7.932;2022-08-18T09:39:41;96369.00;;;19.83;100.00
64141;BME280;50436;50.618;7.932;2022-08-18T09:42:50;96367.31;;;19.96;100.00
64141;BME280;50436;50.618;7.932;2022-08-18T09:45:44;96360.03;;;20.05;100.00
64141;BME280;50436;50.618;7.932;2022-08-18T09:48:30;96355.28;;;20.11;100.00
64141;BME280;50436;50.618;7.932;2022-08-18T09:50:57;96361.03;;;20.09;100.00
64141;BME280;50436;50.618;7.932;2022-08-18T09:56:14;96366.66;;;20.21;100.00
64141;BME280;50436;50.618;7.932;2022-08-18T09:58:47;96366.41;;;20.31;100.00
64141;BME280;50436;50.618;7.932;2022-08-18T10:06:41;96360.34;;;20.74;100.00
64141;BME280;50436;50.618;7.932;2022-08-18T10:23:43;96339.16;;;21.72;100.00
64141;BME280;50436;50.618;7.932;2022-08-18T10:28:57;96339.94;;;21.81;100.00
64141;BME280;50436;50.618;7.932;2022-08-18T10:31:23;96341.72;;;21.59;100.00
64141;BME280;50436;50.618;7.932;2022-08-18T10:36:40;96330.69;;;21.56;100.00
64141;BME280;50436;50.618;7.932;2022-08-18T10:39:15;96327.63;;;21.66;100.00
64141;BME280;50436;50.618;7.932;2022-08-18T10:41:55;96332.88;;;21.88;100.00
64141;BME280;50436;50.618;7.932;2022-08-18T10:44:22;96338.03;;;21.81;100.00
64141;BME280;50436;50.618;7.932;2022-08-18T10:46:49;96334.31;;;22.12;100.00
64141;BME280;50436;50.618;7.932;2022-08-18T10:49:24;96340.84;;;22.02;100.00
64141;BME280;50436;50.618;7.932;2022-08-18T10:52:12;96336.09;;;21.90;100.00
64141;BME280;50436;50.618;7.932;2022-08-18T10:55:05;96342.50;;;21.77;100.00
64141;BME280;50436;50.618;7.932;2022-08-18T11:01:07;96329.03;;;21.89;100.00
64141;BME280;50436;50.618;7.932;2022-08-18T11:06:16;96329.53;;;21.83;100.00
64141;BME280;50436;50.618;7.932;2022-08-18T11:08:47;96331.16;;;21.66;100.00
64141;BME280;50436;50.618;7.932;2022-08-18T11:11:20;96340.94;;;21.50;100.00
64141;BME280;50436;50.618;7.932;2022-08-18T11:14:00;96343.50;;;21.47;100.00
64141;BME280;50436;50.618;7.932;2022-08-18T11:19:10;96322.22;;;21.40;100.00
64141;BME280;50436;50.618;7.932;2022-08-18T11:26:31;96320.78;;;21.42;100.00
64141;BME280;50436;50.618;7.932;2022-08-18T11:29:18;96315.97;;;21.39;100.00
64141;BME280;50436;50.618;7.932;2022-08-18T11:31:47;96316.13;;;21.26;100.00
64141;BME280;50436;50.618;7.932;2022-08-18T11:34:16;96317.72;;;21.18;100.00
64141;BME280;50436;50.618;7.932;2022-08-18T11:36:43;96318.84;;;21.17;100.00
64141;BME280;50436;50.618;7.932;2022-08-18T11:39:18;96318.84;;;21.26;100.00
64141;BME280;50436;50.618;7.932;2022-08-18T11:41:44;96306.69;;;21.40;100.00
64141;BME280;50436;50.618;7.932;2022-08-18T11:44:17;96299.31;;;21.50;100.00
64141;BME280;50436;50.618;7.932;2022-08-18T11:46:43;96300.88;;;21.68;100.00
64141;BME280;50436;50.618;7.932;2022-08-18T11:49:17;96291.44;;;21.74;100.00
64141;BME280;50436;50.618;7.932;2022-08-18T11:52:18;96305.19;;;21.69;100.00
64141;BME280;50436;50.618;7.932;2022-08-18T11:54:47;96305.03;;;21.74;100.00
64141;BME280;50436;50.618;7.932;2022-08-18T12:03:04;96330.69;;;21.30;100.00
64141;BME280;50436;50.618;7.932;2022-08-18T12:06:26;96339.31;;;21.23;100.00
64141;BME280;50436;50.618;7.932;2022-08-18T12:08:32;96352.09;;;21.14;100.00
64141;BME280;50436;50.618;7.932;2022-08-18T12:11:05;96360.44;;;21.09;100.00
64141;BME280;50436;50.618;7.932;2022-08-18T12:13:38;96353.81;;;20.93;100.00
64141;BME280;50436;50.618;7.932;2022-08-18T12:16:10;96338.81;;;21.04;100.00
64141;BME280;50436;50.618;7.932;2022-08-18T12:18:36;96321.69;;;21.12;100.00
64141;BME280;50436;50.618;7.932;2022-08-18T12:21:01;96306.69;;;21.32;100.00
64141;BME280;50436;50.618;7.932;2022-08-18T12:23:27;96299.16;;;21.37;100.00
64141;BME280;50436;50.618;7.932;2022-08-18T12:25:52;96300.91;;;21.25;100.00
64141;BME280;50436;50.618;7.932;2022-08-18T12:28:19;96300.59;;;21.18;100.00
64141;BME280;50436;50.618;7.932;2022-08-18T12:30:45;96290.06;;;21.33;100.00
64141;BME280;50436;50.618;7.932;2022-08-18T12:33:11;96280.25;;;21.58;100.00
64141;BME280;50436;50.618;7.932;2022-08-18T12:35:36;96268.88;;;21.65;100.00
64141;BME280;50436;50.618;7.932;2022-08-18T12:38:02;96270.41;;;21.83;100.00
64141;BME280;50436;50.618;7.932;2022-08-18T12:40:27;96267.00;;;22.04;100.00
64141;BME280;50436;50.618;7.932;2022-08-18T12:42:53;96262.91;;;22.27;100.00
64141;BME280;50436;50.618;7.932;2022-08-18T12:45:21;96273.22;;;22.72;100.00
64141;BME280;50436;50.618;7.932;2022-08-18T12:47:46;96275.56;;;23.12;100.00
64141;BME280;50436;50.618;7.932;2022-08-18T12:50:12;96268.50;;;23.65;100.00
64141;BME280;50436;50.618;7.932;2022-08-18T12:52:37;96277.66;;;24.75;100.00
64141;BME280;50436;50.618;7.932;2022-08-18T12:55:04;96275.50;;;26.05;96.22
64141;BME280;50436;50.618;7.932;2022-08-18T12:57:33;96267.75;;;27.44;90.08
64141;BME280;50436;50.618;7.932;2022-08-18T12:59:59;96259.94;;;28.53;83.48
64141;BME280;50436;50.618;7.932;2022-08-18T13:02:24;96254.44;;;29.36;78.77
64141;BME280;50436;50.618;7.932;2022-08-18T13:04:50;96254.50;;;29.74;76.66
64141;BME280;50436;50.618;7.932;2022-08-18T13:07:15;96244.41;;;30.77;70.12
64141;BME280;50436;50.618;7.932;2022-08-18T13:09:44;96246.78;;;31.55;65.78
64141;BME280;50436;50.618;7.932;2022-08-18T13:12:10;96238.81;;;31.32;61.94
64141;BME280;50436;50.618;7.932;2022-08-18T13:14:36;96243.44;;;30.55;67.48
64141;BME280;50436;50.618;7.932;2022-08-18T13:17:02;96241.00;;;30.98;67.58
64141;BME280;50436;50.618;7.932;2022-08-18T13:19:28;96239.38;;;31.80;61.57
64141;BME280;50436;50.618;7.932;2022-08-18T13:21:53;96249.31;;;32.17;59.87
64141;BME280;50436;50.618;7.932;2022-08-18T13:24:19;96247.31;;;32.99;56.33
64141;BME280;50436;50.618;7.932;2022-08-18T13:26:45;96247.63;;;33.37;50.78
64141;BME280;50436;50.618;7.932;2022-08-18T13:29:13;96247.78;;;33.93;50.42
64141;BME280;50436;50.618;7.932;2022-08-18T13:31:41;96250.56;;;33.93;49.23
64141;BME280;50436;50.618;7.932;2022-08-18T13:34:07;96261.47;;;34.21;46.44
64141;BME280;50436;50.618;7.932;2022-08-18T13:36:33;96252.44;;;34.66;44.95
64141;BME280;50436;50.618;7.932;2022-08-18T13:39:17;96260.78;;;35.44;42.55
64141;BME280;50436;50.618;7.932;2022-08-18T13:41:44;96269.28;;;35.64;39.85
64141;BME280;50436;50.618;7.932;2022-08-18T13:44:11;96267.69;;;35.63;40.65
64141;BME280;50436;50.618;7.932;2022-08-18T13:46:39;96264.28;;;35.14;40.64
64141;BME280;50436;50.618;7.932;2022-08-18T13:49:20;96254.44;;;35.75;37.05
64141;BME280;50436;50.618;7.932;2022-08-18T13:51:49;96250.75;;;36.39;36.85
64141;BME280;50436;50.618;7.932;2022-08-18T13:54:21;96263.09;;;37.31;35.34
64141;BME280;50436;50.618;7.932;2022-08-18T13:56:47;96252.13;;;36.27;34.55
64141;BME280;50436;50.618;7.932;2022-08-18T13:59:14;96253.09;;;36.67;36.21
64141;BME280;50436;50.618;7.932;2022-08-18T14:01:41;96249.13;;;37.71;33.95
64141;BME280;50436;50.618;7.932;2022-08-18T14:04:07;96243.97;;;38.42;32.80
64141;BME280;50436;50.618;7.932;2022-08-18T14:06:33;96248.22;;;37.58;33.45
64141;BME280;50436;50.618;7.932;2022-08-18T14:08:59;96248.41;;;37.87;33.08
64141;BME280;50436;50.618;7.932;2022-08-18T14:11:27;96256.72;;;37.90;32.06
64141;BME280;50436;50.618;7.932;2022-08-18T14:13:54;96255.19;;;38.06;31.58
64141;BME280;50436;50.618;7.932;2022-08-18T14:16:20;96246.31;;;38.43;30.78
64141;BME280;50436;50.618;7.932;2022-08-18T14:18:46;96247.38;;;37.97;32.49
64141;BME280;50436;50.618;7.932;2022-08-18T14:21:33;96240.22;;;37.96;31.65
64141;BME280;50436;50.618;7.932;2022-08-18T14:24:17;96241.75;;;37.01;32.94
64141;BME280;50436;50.618;7.932;2022-08-18T14:27:01;96253.75;;;35.97;35.43
64141;BME280;50436;50.618;7.932;2022-08-18T14:29:27;96233.66;;;37.67;32.90
64141;BME280;50436;50.618;7.932;2022-08-18T14:31:52;96238.38;;;38.26;30.39
64141;BME280;50436;50.618;7.932;2022-08-18T14:34:18;96226.81;;;38.07;29.88
64141;BME280;50436;50.618;7.932;2022-08-18T14:36:43;96233.81;;;35.38;35.00
64141;BME280;50436;50.618;7.932;2022-08-18T14:39:10;96240.50;;;33.43;39.26
64141;BME280;50436;50.618;7.932;2022-08-18T14:41:36;96232.66;;;31.78;48.16
64141;BME280;50436;50.618;7.932;2022-08-18T14:44:02;96239.50;;;31.15;52.33
64141;BME280;50436;50.618;7.932;2022-08-18T14:46:27;96241.44;;;31.07;54.02
64141;BME280;50436;50.618;7.932;2022-08-18T14:48:53;96247.13;;;29.85;62.85
64141;BME280;50436;50.618;7.932;2022-08-18T14:51:18;96249.72;;;30.52;58.41
64141;BME280;50436;50.618;7.932;2022-08-18T14:53:53;96246.84;;;30.38;59.18
64141;BME280;50436;50.618;7.932;2022-08-18T14:56:19;96242.06;;;30.28;60.03
64141;BME280;50436;50.618;7.932;2022-08-18T14:58:45;96243.19;;;30.71;56.92
64141;BME280;50436;50.618;7.932;2022-08-18T15:01:10;96220.88;;;32.56;47.40
64141;BME280;50436;50.618;7.932;2022-08-18T15:03:38;96225.69;;;34.34;40.65
64141;BME280;50436;50.618;7.932;2022-08-18T15:06:05;96219.78;;;36.37;36.03
64141;BME280;50436;50.618;7.932;2022-08-18T15:08:33;96230.63;;;35.05;37.11
64141;BME280;50436;50.618;7.932;2022-08-18T15:10:59;96231.09;;;35.34;37.04